sensor_id;sensor_type;location;lat;lon;timestamp;P1;durP1;ratioP1;P2;durP2;ratioP2
74908;SDS011;63468;52.058;4.824;2023-09-07T00:01:32;14.07;;;9.82;;
74908;SDS011;63468;52.058;4.824;2023-09-07T00:03:58;13.50;;;9.45;;
74908;SDS011;63468;52.058;4.824;2023-09-07T00:06:23;13.30;;;10.05;;
74908;SDS011;63468;52.058;4.824;2023-09-07T00:08:49;15.18;;;9.95;;
74908;SDS011;63468;52.058;4.824;2023-09-07T00:11:14;13.43;;;9.90;;
74908;SDS011;63468;52.058;4.824;2023-09-07T00:13:40;15.18;;;9.57;;
74908;SDS011;63468;52.058;4.824;2023-09-07T00:16:05;15.95;;;9.57;;
74908;SDS011;63468;52.058;4.824;2023-09-07T00:18:31;13.45;;;9.38;;
74908;SDS011;63468;52.058;4.824;2023-09-07T00:20:58;12.95;;;9.43;;
74908;SDS011;63468;52.058;4.824;2023-09-07T00:23:23;13.80;;;9.25;;
74908;SDS011;63468;52.058;4.824;2023-09-07T00:25:49;13.38;;;9.82;;
74908;SDS011;63468;52.058;4.824;2023-09-07T00:28:14;13.50;;;10.68;;
74908;SDS011;63468;52.058;4.824;2023-09-07T00:30:39;13.32;;;9.68;;
74908;SDS011;63468;52.058;4.824;2023-09-07T00:33:05;13.57;;;10.25;;
74908;SDS011;63468;52.058;4.824;2023-09-07T00:35:31;13.93;;;9.57;;
74908;SDS011;63468;52.058;4.824;2023-09-07T00:37:56;14.13;;;10.23;;
74908;SDS011;63468;52.058;4.824;2023-09-07T00:40:22;14.00;;;10.10;;
74908;SDS011;63468;52.058;4.824;2023-09-07T00:42:47;13.45;;;9.45;;
74908;SDS011;63468;52.058;4.824;2023-09-07T00:45:12;13.73;;;9.93;;
74908;SDS011;63468;52.058;4.824;2023-09-07T00:47:38;13.40;;;10.02;;
74908;SDS011;63468;52.058;4.824;2023-09-07T00:50:06;14.05;;;9.68;;
74908;SDS011;63468;52.058;4.824;2023-09-07T00:52:36;14.50;;;9.63;;
74908;SDS011;63468;52.058;4.824;2023-09-07T00:55:05;14.43;;;9.55;;
74908;SDS011;63468;52.058;4.824;2023-09-07T00:57:30;13.63;;;9.68;;
74908;SDS011;63468;52.058;4.824;2023-09-07T00:59:55;13.68;;;9.68;;
74908;SDS011;63468;52.058;4.824;2023-09-07T01:02:21;14.77;;;10.30;;
74908;SDS011;63468;52.058;4.824;2023-09-07T01:04:46;13.25;;;9.77;;
74908;SDS011;63468;52.058;4.824;2023-09-07T01:07:14;14.65;;;10.57;;
74908;SDS011;63468;52.058;4.824;2023-09-07T01:09:43;13.55;;;10.15;;
74908;SDS011;63468;52.058;4.824;2023-09-07T01:12:13;15.23;;;9.68;;
74908;SDS011;63468;52.058;4.824;2023-09-07T01:14:39;15.45;;;10.30;;
74908;SDS011;63468;52.058;4.824;2023-09-07T01:17:04;13.82;;;9.90;;
74908;SDS011;63468;52.058;4.824;2023-09-07T01:19:30;13.73;;;9.82;;
74908;SDS011;63468;52.058;4.824;2023-09-07T01:21:55;13.40;;;10.07;;
74908;SDS011;63468;52.058;4.824;2023-09-07T01:24:21;17.88;;;10.13;;
74908;SDS011;63468;52.058;4.824;2023-09-07T01:26:47;14.25;;;10.50;;
74908;SDS011;63468;52.058;4.824;2023-09-07T01:29:14;16.80;;;11.00;;
74908;SDS011;63468;52.058;4.824;2023-09-07T01:31:41;15.85;;;10.55;;
74908;SDS011;63468;52.058;4.824;2023-09-07T01:34:07;15.90;;;10.43;;
74908;SDS011;63468;52.058;4.824;2023-09-07T01:36:33;13.90;;;10.85;;
74908;SDS011;63468;52.058;4.824;2023-09-07T01:38:59;14.70;;;10.80;;
74908;SDS011;63468;52.058;4.824;2023-09-07T01:41:25;14.48;;;10.48;;
74908;SDS011;63468;52.058;4.824;2023-09-07T01:43:50;14.23;;;10.93;;
74908;SDS011;63468;52.058;4.824;2023-09-07T01:46:15;14.60;;;11.13;;
74908;SDS011;63468;52.058;4.824;2023-09-07T01:48:41;15.05;;;10.90;;
74908;SDS011;63468;52.058;4.824;2023-09-07T01:51:07;17.45;;;10.75;;
74908;SDS011;63468;52.058;4.824;2023-09-07T01:53:32;17.67;;;12.52;;
74908;SDS011;63468;52.058;4.824;2023-09-07T01:55:58;17.58;;;12.27;;
74908;SDS011;63468;52.058;4.824;2023-09-07T01:58:24;17.88;;;11.27;;
74908;SDS011;63468;52.058;4.824;2023-09-07T02:00:49;17.05;;;12.02;;
74908;SDS011;63468;52.058;4.824;2023-09-07T02:03:15;16.80;;;11.00;;
74908;SDS011;63468;52.058;4.824;2023-09-07T02:05:40;16.30;;;11.43;;
74908;SDS011;63468;52.058;4.824;2023-09-07T02:08:05;15.30;;;10.95;;
74908;SDS011;63468;52.058;4.824;2023-09-07T02:10:31;16.55;;;11.05;;
74908;SDS011;63468;52.058;4.824;2023-09-07T02:12:56;16.42;;;10.98;;
74908;SDS011;63468;52.058;4.824;2023-09-07T02:15:23;14.82;;;10.60;;
74908;SDS011;63468;52.058;4.824;2023-09-07T02:17:48;17.08;;;11.18;;
74908;SDS011;63468;52.058;4.824;2023-09-07T02:20:13;14.85;;;11.13;;
74908;SDS011;63468;52.058;4.824;2023-09-07T02:22:39;15.20;;;11.32;;
74908;SDS011;63468;52.058;4.824;2023-09-07T02:25:05;15.63;;;10.90;;
74908;SDS011;63468;52.058;4.824;2023-09-07T02:27:30;15.48;;;11.57;;
74908;SDS011;63468;52.058;4.824;2023-09-07T02:29:57;15.50;;;10.50;;
74908;SDS011;63468;52.058;4.824;2023-09-07T02:32:22;16.20;;;10.50;;
74908;SDS011;63468;52.058;4.824;2023-09-07T02:34:47;16.42;;;11.35;;
74908;SDS011;63468;52.058;4.824;2023-09-07T02:37:13;16.52;;;12.10;;
74908;SDS011;63468;52.058;4.824;2023-09-07T02:39:39;18.23;;;11.20;;
74908;SDS011;63468;52.058;4.824;2023-09-07T02:42:05;16.70;;;12.07;;
74908;SDS011;63468;52.058;4.824;2023-09-07T02:44:31;15.95;;;11.98;;
74908;SDS011;63468;52.058;4.824;2023-09-07T02:46:56;19.45;;;12.10;;
74908;SDS011;63468;52.058;4.824;2023-09-07T02:49:21;18.42;;;11.98;;
74908;SDS011;63468;52.058;4.824;2023-09-07T02:51:46;17.45;;;11.88;;
74908;SDS011;63468;52.058;4.824;2023-09-07T02:54:12;16.08;;;11.48;;
74908;SDS011;63468;52.058;4.824;2023-09-07T02:56:37;15.63;;;10.93;;
74908;SDS011;63468;52.058;4.824;2023-09-07T02:59:03;18.58;;;12.80;;
74908;SDS011;63468;52.058;4.824;2023-09-07T03:01:29;20.77;;;12.15;;
74908;SDS011;63468;52.058;4.824;2023-09-07T03:03:55;16.08;;;11.68;;
74908;SDS011;63468;52.058;4.824;2023-09-07T03:06:20;16.83;;;11.73;;
74908;SDS011;63468;52.058;4.824;2023-09-07T03:08:45;17.15;;;12.68;;
74908;SDS011;63468;52.058;4.824;2023-09-07T03:11:11;18.45;;;13.27;;
74908;SDS011;63468;52.058;4.824;2023-09-07T03:13:36;18.30;;;13.50;;
74908;SDS011;63468;52.058;4.824;2023-09-07T03:16:02;17.85;;;12.38;;
74908;SDS011;63468;52.058;4.824;2023-09-07T03:18:28;19.50;;;12.63;;
74908;SDS011;63468;52.058;4.824;2023-09-07T03:20:55;18.98;;;11.20;;
74908;SDS011;63468;52.058;4.824;2023-09-07T03:23:21;18.73;;;12.32;;
74908;SDS011;63468;52.058;4.824;2023-09-07T03:25:47;17.67;;;12.55;;
74908;SDS011;63468;52.058;4.824;2023-09-07T03:28:13;22.45;;;13.65;;
74908;SDS011;63468;52.058;4.824;2023-09-07T03:30:38;18.83;;;12.45;;
74908;SDS011;63468;52.058;4.824;2023-09-07T03:33:04;18.48;;;12.20;;
74908;SDS011;63468;52.058;4.824;2023-09-07T03:35:30;22.40;;;13.02;;
74908;SDS011;63468;52.058;4.824;2023-09-07T03:37:57;18.70;;;13.13;;
74908;SDS011;63468;52.058;4.824;2023-09-07T03:40:23;19.52;;;13.15;;
74908;SDS011;63468;52.058;4.824;2023-09-07T03:42:49;21.58;;;13.93;;
74908;SDS011;63468;52.058;4.824;2023-09-07T03:45:14;18.65;;;13.15;;
74908;SDS011;63468;52.058;4.824;2023-09-07T03:47:40;19.02;;;13.25;;
74908;SDS011;63468;52.058;4.824;2023-09-07T03:50:05;20.08;;;13.50;;
74908;SDS011;63468;52.058;4.824;2023-09-07T03:52:31;21.35;;;13.68;;
74908;SDS011;63468;52.058;4.824;2023-09-07T03:54:56;19.90;;;13.60;;
74908;SDS011;63468;52.058;4.824;2023-09-07T03:57:22;19.08;;;14.20;;
74908;SDS011;63468;52.058;4.824;2023-09-07T03:59:51;18.45;;;13.07;;
74908;SDS011;63468;52.058;4.824;2023-09-07T04:02:16;19.73;;;13.55;;
74908;SDS011;63468;52.058;4.824;2023-09-07T04:04:42;19.58;;;13.73;;
74908;SDS011;63468;52.058;4.824;2023-09-07T04:07:08;21.38;;;13.38;;
74908;SDS011;63468;52.058;4.824;2023-09-07T04:09:34;19.13;;;13.77;;
74908;SDS011;63468;52.058;4.824;2023-09-07T04:12:00;19.52;;;14.75;;
74908;SDS011;63468;52.058;4.824;2023-09-07T04:14:25;23.63;;;14.10;;
74908;SDS011;63468;52.058;4.824;2023-09-07T04:16:51;18.05;;;13.43;;
74908;SDS011;63468;52.058;4.824;2023-09-07T04:19:16;20.05;;;13.68;;
74908;SDS011;63468;52.058;4.824;2023-09-07T04:21:42;18.55;;;14.02;;
74908;SDS011;63468;52.058;4.824;2023-09-07T04:24:07;21.35;;;13.65;;
74908;SDS011;63468;52.058;4.824;2023-09-07T04:26:33;25.02;;;14.20;;
74908;SDS011;63468;52.058;4.824;2023-09-07T04:28:58;19.67;;;13.85;;
74908;SDS011;63468;52.058;4.824;2023-09-07T04:31:24;18.35;;;14.20;;
74908;SDS011;63468;52.058;4.824;2023-09-07T04:33:52;19.15;;;14.77;;
74908;SDS011;63468;52.058;4.824;2023-09-07T04:36:17;19.25;;;13.30;;
74908;SDS011;63468;52.058;4.824;2023-09-07T04:38:43;21.42;;;14.35;;
74908;SDS011;63468;52.058;4.824;2023-09-07T04:41:12;21.38;;;14.50;;
74908;SDS011;63468;52.058;4.824;2023-09-07T04:43:38;21.88;;;15.38;;
74908;SDS011;63468;52.058;4.824;2023-09-07T04:46:13;19.77;;;13.70;;
74908;SDS011;63468;52.058;4.824;2023-09-07T04:48:39;21.60;;;15.02;;
74908;SDS011;63468;52.058;4.824;2023-09-07T04:51:11;20.48;;;14.45;;
74908;SDS011;63468;52.058;4.824;2023-09-07T04:53:38;20.38;;;15.00;;
74908;SDS011;63468;52.058;4.824;2023-09-07T04:56:03;20.55;;;14.30;;
74908;SDS011;63468;52.058;4.824;2023-09-07T04:58:30;21.48;;;14.13;;
74908;SDS011;63468;52.058;4.824;2023-09-07T05:01:02;21.08;;;14.25;;
74908;SDS011;63468;52.058;4.824;2023-09-07T05:03:31;20.95;;;15.77;;
74908;SDS011;63468;52.058;4.824;2023-09-07T05:05:56;21.38;;;15.23;;
74908;SDS011;63468;52.058;4.824;2023-09-07T05:08:22;23.70;;;14.98;;
74908;SDS011;63468;52.058;4.824;2023-09-07T05:10:49;22.67;;;15.00;;
74908;SDS011;63468;52.058;4.824;2023-09-07T05:13:19;20.92;;;14.70;;
74908;SDS011;63468;52.058;4.824;2023-09-07T05:15:48;20.98;;;13.80;;
74908;SDS011;63468;52.058;4.824;2023-09-07T05:18:16;20.73;;;13.60;;
74908;SDS011;63468;52.058;4.824;2023-09-07T05:20:42;22.08;;;15.27;;
74908;SDS011;63468;52.058;4.824;2023-09-07T05:23:10;20.92;;;15.13;;
74908;SDS011;63468;52.058;4.824;2023-09-07T05:25:42;21.98;;;14.05;;
74908;SDS011;63468;52.058;4.824;2023-09-07T05:28:12;21.75;;;14.25;;
74908;SDS011;63468;52.058;4.824;2023-09-07T05:30:38;19.75;;;14.07;;
74908;SDS011;63468;52.058;4.824;2023-09-07T05:33:03;22.38;;;14.50;;
74908;SDS011;63468;52.058;4.824;2023-09-07T05:35:29;22.25;;;13.82;;
74908;SDS011;63468;52.058;4.824;2023-09-07T05:37:57;20.65;;;13.27;;
74908;SDS011;63468;52.058;4.824;2023-09-07T05:40:22;26.00;;;14.48;;
74908;SDS011;63468;52.058;4.824;2023-09-07T05:42:48;19.08;;;13.02;;
74908;SDS011;63468;52.058;4.824;2023-09-07T05:45:13;32.78;;;22.30;;
74908;SDS011;63468;52.058;4.824;2023-09-07T05:47:38;23.27;;;16.10;;
74908;SDS011;63468;52.058;4.824;2023-09-07T05:50:04;31.80;;;19.80;;
74908;SDS011;63468;52.058;4.824;2023-09-07T05:52:29;21.98;;;15.07;;
74908;SDS011;63468;52.058;4.824;2023-09-07T05:54:55;18.98;;;14.30;;
74908;SDS011;63468;52.058;4.824;2023-09-07T05:57:20;18.90;;;13.82;;
74908;SDS011;63468;52.058;4.824;2023-09-07T05:59:45;20.58;;;13.90;;
74908;SDS011;63468;52.058;4.824;2023-09-07T06:02:11;20.45;;;13.13;;
74908;SDS011;63468;52.058;4.824;2023-09-07T06:04:36;20.08;;;13.80;;
74908;SDS011;63468;52.058;4.824;2023-09-07T06:07:01;24.77;;;13.77;;
74908;SDS011;63468;52.058;4.824;2023-09-07T06:09:27;19.45;;;13.85;;
74908;SDS011;63468;52.058;4.824;2023-09-07T06:11:53;20.08;;;14.27;;
74908;SDS011;63468;52.058;4.824;2023-09-07T06:14:19;29.63;;;15.50;;
74908;SDS011;63468;52.058;4.824;2023-09-07T06:16:45;21.02;;;14.23;;
74908;SDS011;63468;52.058;4.824;2023-09-07T06:19:10;17.92;;;14.13;;
74908;SDS011;63468;52.058;4.824;2023-09-07T06:21:35;19.05;;;13.40;;
74908;SDS011;63468;52.058;4.824;2023-09-07T06:24:00;37.38;;;27.08;;
74908;SDS011;63468;52.058;4.824;2023-09-07T06:26:26;20.33;;;15.70;;
74908;SDS011;63468;52.058;4.824;2023-09-07T06:28:51;24.45;;;17.00;;
74908;SDS011;63468;52.058;4.824;2023-09-07T06:31:16;22.02;;;15.35;;
74908;SDS011;63468;52.058;4.824;2023-09-07T06:33:42;21.83;;;15.43;;
74908;SDS011;63468;52.058;4.824;2023-09-07T06:36:07;21.85;;;15.25;;
74908;SDS011;63468;52.058;4.824;2023-09-07T06:38:32;22.90;;;15.57;;
74908;SDS011;63468;52.058;4.824;2023-09-07T06:40:58;21.13;;;14.90;;
74908;SDS011;63468;52.058;4.824;2023-09-07T06:43:23;24.15;;;14.77;;
74908;SDS011;63468;52.058;4.824;2023-09-07T06:45:48;19.33;;;14.10;;
74908;SDS011;63468;52.058;4.824;2023-09-07T06:48:13;21.33;;;14.07;;
74908;SDS011;63468;52.058;4.824;2023-09-07T06:50:39;17.83;;;14.13;;
74908;SDS011;63468;52.058;4.824;2023-09-07T06:53:04;22.55;;;13.00;;
74908;SDS011;63468;52.058;4.824;2023-09-07T06:55:29;21.60;;;14.55;;
74908;SDS011;63468;52.058;4.824;2023-09-07T06:57:55;22.25;;;14.20;;
74908;SDS011;63468;52.058;4.824;2023-09-07T07:00:20;18.73;;;13.90;;
74908;SDS011;63468;52.058;4.824;2023-09-07T07:02:46;21.05;;;13.80;;
74908;SDS011;63468;52.058;4.824;2023-09-07T07:05:12;21.17;;;13.95;;
74908;SDS011;63468;52.058;4.824;2023-09-07T07:07:38;17.00;;;12.93;;
74908;SDS011;63468;52.058;4.824;2023-09-07T07:10:04;19.05;;;12.82;;
74908;SDS011;63468;52.058;4.824;2023-09-07T07:12:30;18.65;;;13.50;;
74908;SDS011;63468;52.058;4.824;2023-09-07T07:14:59;19.02;;;12.35;;
74908;SDS011;63468;52.058;4.824;2023-09-07T07:17:25;21.38;;;12.82;;
74908;SDS011;63468;52.058;4.824;2023-09-07T07:19:50;18.55;;;13.38;;
74908;SDS011;63468;52.058;4.824;2023-09-07T07:22:15;21.88;;;13.13;;
74908;SDS011;63468;52.058;4.824;2023-09-07T07:24:41;17.80;;;12.05;;
74908;SDS011;63468;52.058;4.824;2023-09-07T07:27:06;15.00;;;12.02;;
74908;SDS011;63468;52.058;4.824;2023-09-07T07:29:31;17.95;;;13.32;;
74908;SDS011;63468;52.058;4.824;2023-09-07T07:31:56;17.00;;;11.75;;
74908;SDS011;63468;52.058;4.824;2023-09-07T07:34:22;16.50;;;12.98;;
74908;SDS011;63468;52.058;4.824;2023-09-07T07:36:47;17.25;;;12.40;;
74908;SDS011;63468;52.058;4.824;2023-09-07T07:39:12;15.70;;;12.10;;
74908;SDS011;63468;52.058;4.824;2023-09-07T07:41:38;15.93;;;11.43;;
74908;SDS011;63468;52.058;4.824;2023-09-07T07:44:03;16.98;;;11.93;;
74908;SDS011;63468;52.058;4.824;2023-09-07T07:46:28;16.95;;;11.50;;
74908;SDS011;63468;52.058;4.824;2023-09-07T07:48:54;15.00;;;11.02;;
74908;SDS011;63468;52.058;4.824;2023-09-07T07:51:19;18.17;;;11.88;;
74908;SDS011;63468;52.058;4.824;2023-09-07T07:53:44;15.15;;;11.48;;
74908;SDS011;63468;52.058;4.824;2023-09-07T07:56:19;15.27;;;11.65;;
74908;SDS011;63468;52.058;4.824;2023-09-07T07:58:44;16.20;;;11.48;;
74908;SDS011;63468;52.058;4.824;2023-09-07T08:01:16;23.60;;;16.45;;
74908;SDS011;63468;52.058;4.824;2023-09-07T08:03:42;16.23;;;13.20;;
74908;SDS011;63468;52.058;4.824;2023-09-07T08:06:08;17.02;;;13.45;;
74908;SDS011;63468;52.058;4.824;2023-09-07T08:08:33;21.13;;;13.55;;
74908;SDS011;63468;52.058;4.824;2023-09-07T08:10:59;19.55;;;13.13;;
74908;SDS011;63468;52.058;4.824;2023-09-07T08:13:25;16.27;;;11.30;;
74908;SDS011;63468;52.058;4.824;2023-09-07T08:15:50;14.35;;;11.02;;
74908;SDS011;63468;52.058;4.824;2023-09-07T08:18:16;13.68;;;10.48;;
74908;SDS011;63468;52.058;4.824;2023-09-07T08:20:41;18.02;;;11.77;;
74908;SDS011;63468;52.058;4.824;2023-09-07T08:23:06;14.00;;;11.55;;
74908;SDS011;63468;52.058;4.824;2023-09-07T08:25:34;21.52;;;14.27;;
74908;SDS011;63468;52.058;4.824;2023-09-07T08:28:00;17.33;;;12.48;;
74908;SDS011;63468;52.058;4.824;2023-09-07T08:30:25;17.73;;;12.18;;
74908;SDS011;63468;52.058;4.824;2023-09-07T08:32:51;15.68;;;12.30;;
74908;SDS011;63468;52.058;4.824;2023-09-07T08:35:16;16.73;;;12.63;;
74908;SDS011;63468;52.058;4.824;2023-09-07T08:37:42;17.58;;;11.10;;
74908;SDS011;63468;52.058;4.824;2023-09-07T08:40:08;13.43;;;11.23;;
74908;SDS011;63468;52.058;4.824;2023-09-07T08:42:37;15.63;;;11.93;;
74908;SDS011;63468;52.058;4.824;2023-09-07T08:45:03;13.20;;;10.90;;
74908;SDS011;63468;52.058;4.824;2023-09-07T08:47:31;13.20;;;11.07;;
74908;SDS011;63468;52.058;4.824;2023-09-07T08:49:58;13.00;;;10.60;;
74908;SDS011;63468;52.058;4.824;2023-09-07T08:52:24;13.98;;;10.45;;
74908;SDS011;63468;52.058;4.824;2023-09-07T08:54:50;15.15;;;11.05;;
74908;SDS011;63468;52.058;4.824;2023-09-07T08:57:16;13.05;;;11.18;;
74908;SDS011;63468;52.058;4.824;2023-09-07T08:59:42;13.68;;;11.45;;
74908;SDS011;63468;52.058;4.824;2023-09-07T09:02:09;12.82;;;10.73;;
74908;SDS011;63468;52.058;4.824;2023-09-07T09:04:35;12.75;;;10.73;;
74908;SDS011;63468;52.058;4.824;2023-09-07T09:07:01;13.82;;;11.20;;
74908;SDS011;63468;52.058;4.824;2023-09-07T09:09:29;13.48;;;10.80;;
74908;SDS011;63468;52.058;4.824;2023-09-07T09:11:54;13.43;;;11.32;;
74908;SDS011;63468;52.058;4.824;2023-09-07T09:14:21;15.00;;;10.90;;
74908;SDS011;63468;52.058;4.824;2023-09-07T09:16:53;14.38;;;10.65;;
74908;SDS011;63468;52.058;4.824;2023-09-07T09:19:18;11.93;;;10.55;;
74908;SDS011;63468;52.058;4.824;2023-09-07T09:21:44;12.52;;;10.55;;
74908;SDS011;63468;52.058;4.824;2023-09-07T09:24:10;12.13;;;10.82;;
74908;SDS011;63468;52.058;4.824;2023-09-07T09:26:37;12.85;;;11.15;;
74908;SDS011;63468;52.058;4.824;2023-09-07T09:29:02;15.55;;;11.10;;
74908;SDS011;63468;52.058;4.824;2023-09-07T09:31:28;11.68;;;10.48;;
74908;SDS011;63468;52.058;4.824;2023-09-07T09:33:55;11.57;;;10.27;;
74908;SDS011;63468;52.058;4.824;2023-09-07T09:36:20;11.15;;;9.98;;
74908;SDS011;63468;52.058;4.824;2023-09-07T09:38:48;33.20;;;26.95;;
74908;SDS011;63468;52.058;4.824;2023-09-07T09:41:15;19.90;;;14.93;;
74908;SDS011;63468;52.058;4.824;2023-09-07T09:43:41;14.32;;;12.85;;
74908;SDS011;63468;52.058;4.824;2023-09-07T09:46:06;14.57;;;12.43;;
74908;SDS011;63468;52.058;4.824;2023-09-07T09:48:34;13.07;;;11.65;;
74908;SDS011;63468;52.058;4.824;2023-09-07T09:51:00;15.05;;;13.55;;
74908;SDS011;63468;52.058;4.824;2023-09-07T09:53:25;11.93;;;10.73;;
74908;SDS011;63468;52.058;4.824;2023-09-07T09:55:52;14.82;;;10.85;;
74908;SDS011;63468;52.058;4.824;2023-09-07T09:58:17;12.55;;;11.25;;
74908;SDS011;63468;52.058;4.824;2023-09-07T10:00:47;14.63;;;10.98;;
74908;SDS011;63468;52.058;4.824;2023-09-07T10:03:16;10.90;;;9.77;;
74908;SDS011;63468;52.058;4.824;2023-09-07T10:08:12;11.48;;;10.38;;
74908;SDS011;63468;52.058;4.824;2023-09-07T10:10:38;11.60;;;10.45;;
74908;SDS011;63468;52.058;4.824;2023-09-07T10:13:04;13.43;;;10.68;;
74908;SDS011;63468;52.058;4.824;2023-09-07T10:15:30;11.73;;;10.45;;
74908;SDS011;63468;52.058;4.824;2023-09-07T10:18:03;11.93;;;10.80;;
74908;SDS011;63468;52.058;4.824;2023-09-07T10:23:21;13.25;;;11.95;;
74908;SDS011;63468;52.058;4.824;2023-09-07T10:26:16;12.50;;;11.20;;
74908;SDS011;63468;52.058;4.824;2023-09-07T10:28:43;13.25;;;10.43;;
74908;SDS011;63468;52.058;4.824;2023-09-07T10:31:18;12.70;;;10.70;;
74908;SDS011;63468;52.058;4.824;2023-09-07T10:33:45;11.25;;;10.10;;
74908;SDS011;63468;52.058;4.824;2023-09-07T10:36:20;11.55;;;10.30;;
74908;SDS011;63468;52.058;4.824;2023-09-07T10:38:47;11.40;;;10.20;;
74908;SDS011;63468;52.058;4.824;2023-09-07T10:41:13;12.07;;;10.88;;
74908;SDS011;63468;52.058;4.824;2023-09-07T10:43:46;12.30;;;11.13;;
74908;SDS011;63468;52.058;4.824;2023-09-07T10:46:14;13.85;;;10.90;;
74908;SDS011;63468;52.058;4.824;2023-09-07T10:48:40;11.88;;;10.65;;
74908;SDS011;63468;52.058;4.824;2023-09-07T10:51:05;11.95;;;10.75;;
74908;SDS011;63468;52.058;4.824;2023-09-07T10:53:31;12.38;;;11.18;;
74908;SDS011;63468;52.058;4.824;2023-09-07T10:55:58;12.40;;;10.88;;
74908;SDS011;63468;52.058;4.824;2023-09-07T10:58:29;11.15;;;10.05;;
74908;SDS011;63468;52.058;4.824;2023-09-07T11:03:21;12.25;;;10.55;;
74908;SDS011;63468;52.058;4.824;2023-09-07T11:05:47;12.02;;;10.70;;
74908;SDS011;63468;52.058;4.824;2023-09-07T11:08:13;11.93;;;10.73;;
74908;SDS011;63468;52.058;4.824;2023-09-07T11:10:39;11.23;;;10.23;;
74908;SDS011;63468;52.058;4.824;2023-09-07T11:13:04;11.45;;;10.35;;
74908;SDS011;63468;52.058;4.824;2023-09-07T11:15:30;11.85;;;10.50;;
74908;SDS011;63468;52.058;4.824;2023-09-07T11:17:57;11.73;;;10.52;;
74908;SDS011;63468;52.058;4.824;2023-09-07T11:20:23;12.27;;;11.05;;
74908;SDS011;63468;52.058;4.824;2023-09-07T11:22:48;11.75;;;10.60;;
74908;SDS011;63468;52.058;4.824;2023-09-07T11:25:14;11.05;;;9.95;;
74908;SDS011;63468;52.058;4.824;2023-09-07T11:27:40;11.90;;;10.80;;
74908;SDS011;63468;52.058;4.824;2023-09-07T11:30:05;12.10;;;11.00;;
74908;SDS011;63468;52.058;4.824;2023-09-07T11:32:36;11.80;;;10.70;;
74908;SDS011;63468;52.058;4.824;2023-09-07T11:35:01;11.75;;;10.65;;
74908;SDS011;63468;52.058;4.824;2023-09-07T11:37:27;14.48;;;10.00;;
74908;SDS011;63468;52.058;4.824;2023-09-07T11:39:52;11.18;;;10.15;;
74908;SDS011;63468;52.058;4.824;2023-09-07T11:42:17;11.38;;;10.20;;
74908;SDS011;63468;52.058;4.824;2023-09-07T11:44:43;11.98;;;10.70;;
74908;SDS011;63468;52.058;4.824;2023-09-07T11:47:08;12.10;;;10.93;;
74908;SDS011;63468;52.058;4.824;2023-09-07T11:49:34;12.13;;;10.93;;
74908;SDS011;63468;52.058;4.824;2023-09-07T11:51:59;11.45;;;10.45;;
74908;SDS011;63468;52.058;4.824;2023-09-07T11:54:24;12.43;;;10.55;;
74908;SDS011;63468;52.058;4.824;2023-09-07T11:56:50;11.93;;;10.82;;
74908;SDS011;63468;52.058;4.824;2023-09-07T11:59:15;12.25;;;11.15;;
74908;SDS011;63468;52.058;4.824;2023-09-07T12:01:43;12.27;;;11.07;;
74908;SDS011;63468;52.058;4.824;2023-09-07T12:04:09;11.20;;;10.20;;
74908;SDS011;63468;52.058;4.824;2023-09-07T12:06:35;11.32;;;10.25;;
74908;SDS011;63468;52.058;4.824;2023-09-07T12:09:01;11.05;;;10.05;;
74908;SDS011;63468;52.058;4.824;2023-09-07T12:11:27;14.00;;;10.63;;
74908;SDS011;63468;52.058;4.824;2023-09-07T12:13:53;12.07;;;10.88;;
74908;SDS011;63468;52.058;4.824;2023-09-07T12:16:18;11.35;;;10.35;;
74908;SDS011;63468;52.058;4.824;2023-09-07T12:18:43;12.88;;;11.23;;
74908;SDS011;63468;52.058;4.824;2023-09-07T12:21:09;12.27;;;11.18;;
74908;SDS011;63468;52.058;4.824;2023-09-07T12:23:34;11.98;;;10.75;;
74908;SDS011;63468;52.058;4.824;2023-09-07T12:26:00;12.40;;;10.95;;
74908;SDS011;63468;52.058;4.824;2023-09-07T12:28:26;12.07;;;10.70;;
74908;SDS011;63468;52.058;4.824;2023-09-07T12:30:51;12.43;;;11.32;;
74908;SDS011;63468;52.058;4.824;2023-09-07T12:33:17;12.27;;;11.07;;
74908;SDS011;63468;52.058;4.824;2023-09-07T12:35:42;13.57;;;12.18;;
74908;SDS011;63468;52.058;4.824;2023-09-07T12:38:07;13.13;;;11.82;;
74908;SDS011;63468;52.058;4.824;2023-09-07T12:40:35;13.73;;;12.20;;
74908;SDS011;63468;52.058;4.824;2023-09-07T12:43:01;13.93;;;12.52;;
74908;SDS011;63468;52.058;4.824;2023-09-07T12:45:26;13.07;;;11.60;;
74908;SDS011;63468;52.058;4.824;2023-09-07T12:47:52;12.63;;;11.32;;
74908;SDS011;63468;52.058;4.824;2023-09-07T12:50:17;11.95;;;10.82;;
74908;SDS011;63468;52.058;4.824;2023-09-07T12:52:42;12.02;;;10.88;;
74908;SDS011;63468;52.058;4.824;2023-09-07T12:55:08;12.88;;;11.68;;
74908;SDS011;63468;52.058;4.824;2023-09-07T12:57:33;11.93;;;10.75;;
74908;SDS011;63468;52.058;4.824;2023-09-07T12:59:59;11.85;;;10.65;;
74908;SDS011;63468;52.058;4.824;2023-09-07T13:02:25;12.45;;;11.35;;
74908;SDS011;63468;52.058;4.824;2023-09-07T13:04:53;11.88;;;10.27;;
74908;SDS011;63468;52.058;4.824;2023-09-07T13:07:19;11.48;;;10.43;;
74908;SDS011;63468;52.058;4.824;2023-09-07T13:09:44;12.60;;;10.90;;
74908;SDS011;63468;52.058;4.824;2023-09-07T13:12:10;12.40;;;11.10;;
74908;SDS011;63468;52.058;4.824;2023-09-07T13:14:36;11.88;;;10.48;;
74908;SDS011;63468;52.058;4.824;2023-09-07T13:17:01;12.32;;;11.13;;
74908;SDS011;63468;52.058;4.824;2023-09-07T13:19:26;12.15;;;11.05;;
74908;SDS011;63468;52.058;4.824;2023-09-07T13:21:52;12.30;;;11.18;;
74908;SDS011;63468;52.058;4.824;2023-09-07T13:24:17;11.77;;;10.68;;
74908;SDS011;63468;52.058;4.824;2023-09-07T13:26:46;12.50;;;11.30;;
74908;SDS011;63468;52.058;4.824;2023-09-07T13:29:11;12.77;;;11.48;;
74908;SDS011;63468;52.058;4.824;2023-09-07T13:31:37;11.80;;;10.70;;
74908;SDS011;63468;52.058;4.824;2023-09-07T13:34:02;12.45;;;11.25;;
74908;SDS011;63468;52.058;4.824;2023-09-07T13:36:28;13.05;;;11.65;;
74908;SDS011;63468;52.058;4.824;2023-09-07T13:38:54;12.40;;;11.27;;
74908;SDS011;63468;52.058;4.824;2023-09-07T13:41:21;12.70;;;10.30;;
74908;SDS011;63468;52.058;4.824;2023-09-07T13:43:47;12.65;;;11.35;;
74908;SDS011;63468;52.058;4.824;2023-09-07T13:46:12;16.58;;;11.68;;
74908;SDS011;63468;52.058;4.824;2023-09-07T13:48:38;12.57;;;11.27;;
74908;SDS011;63468;52.058;4.824;2023-09-07T13:51:03;11.80;;;10.70;;
74908;SDS011;63468;52.058;4.824;2023-09-07T13:53:28;13.82;;;11.38;;
74908;SDS011;63468;52.058;4.824;2023-09-07T13:55:54;11.77;;;10.57;;
74908;SDS011;63468;52.058;4.824;2023-09-07T13:58:19;12.05;;;10.70;;
74908;SDS011;63468;52.058;4.824;2023-09-07T14:00:44;11.65;;;10.45;;
74908;SDS011;63468;52.058;4.824;2023-09-07T14:03:11;13.00;;;11.30;;
74908;SDS011;63468;52.058;4.824;2023-09-07T14:05:37;12.18;;;11.00;;
74908;SDS011;63468;52.058;4.824;2023-09-07T14:08:02;11.50;;;10.13;;
74908;SDS011;63468;52.058;4.824;2023-09-07T14:10:27;15.63;;;11.30;;
74908;SDS011;63468;52.058;4.824;2023-09-07T14:12:53;11.70;;;10.60;;
74908;SDS011;63468;52.058;4.824;2023-09-07T14:15:18;12.85;;;11.55;;
74908;SDS011;63468;52.058;4.824;2023-09-07T14:17:43;12.50;;;11.30;;
74908;SDS011;63468;52.058;4.824;2023-09-07T14:20:09;12.65;;;11.25;;
74908;SDS011;63468;52.058;4.824;2023-09-07T14:22:34;12.30;;;11.10;;
74908;SDS011;63468;52.058;4.824;2023-09-07T14:25:00;12.43;;;11.13;;